Pittsburgh, Pennsylvania
Traffic Map
Current Weather Conditions
Pittsburgh, Pennsylvania
Clear
Clear
20°
Feels Like: 20°
Wind Chill: 20° Ceiling: Unl
Heat Index: 20° Visibility: 10mi
Dew Point: Wind: 10mph
Humidity: 42% Direction: 120° (ESE)
Pressure: 29.87in Gusts: 0mph
Raw Report DataKAGC 231653Z 12009KT 10SM CLR 20/07 A2987 RMK AO2 SLP115 T02000067
Traffic Incident Summary
Active as of:
Severity:
Category:
InformationThere was an issue retrieving the traffic information for this location. Please try a different location or try again shortly.
Advertisements
Track Severe Weather on mobile